createdAt,value
2023-03-19T00:02:17.222Z,230.57
2023-03-19T00:04:46.141Z,212.43
2023-03-19T00:07:13.872Z,192.13
2023-03-19T00:09:40.714Z,156.67
2023-03-19T00:12:07.933Z,186.10
2023-03-19T00:14:35.556Z,224.70
2023-03-19T00:17:02.690Z,166.73
2023-03-19T00:19:29.442Z,158.23
2023-03-19T00:21:56.863Z,148.57
2023-03-19T00:24:23.556Z,183.47
2023-03-19T00:26:50.984Z,213.93
2023-03-19T00:29:17.984Z,117.67
2023-03-19T00:31:45.372Z,164.27
2023-03-19T00:34:13.269Z,136.73
2023-03-19T00:36:40.047Z,90.90
2023-03-19T00:39:07.484Z,95.97
2023-03-19T00:41:34.355Z,116.87
2023-03-19T00:44:01.179Z,90.47
2023-03-19T00:46:27.874Z,234.20
2023-03-19T00:48:55.763Z,116.53
2023-03-19T00:51:23.831Z,178.90
2023-03-19T00:53:51.670Z,296.17
2023-03-19T00:56:19.228Z,344.43
2023-03-19T00:58:47.338Z,187.57
2023-03-19T01:01:17.614Z,155.50
2023-03-19T01:03:45.421Z,98.03
2023-03-19T01:06:12.884Z,84.40
2023-03-19T01:08:39.696Z,99.53
2023-03-19T01:11:14.213Z,135.13
2023-03-19T01:13:42.052Z,84.87
2023-03-19T01:16:09.936Z,79.57
2023-03-19T01:18:37.455Z,130.33
2023-03-19T01:21:04.581Z,155.10
2023-03-19T01:23:31.761Z,246.20
2023-03-19T01:25:58.526Z,91.07
2023-03-19T01:28:25.495Z,66.67
2023-03-19T01:30:52.416Z,78.10
2023-03-19T01:33:20.598Z,64.97
2023-03-19T01:35:48.122Z,50.57
2023-03-19T01:38:15.074Z,109.47
2023-03-19T01:40:46.199Z,67.33
2023-03-19T01:43:24.442Z,71.83
2023-03-19T01:45:55.577Z,51.53
2023-03-19T01:48:22.218Z,43.47
2023-03-19T01:50:50.730Z,42.90
2023-03-19T01:53:19.741Z,40.80
2023-03-19T01:55:47.391Z,51.33
2023-03-19T01:58:14.473Z,44.53
2023-03-19T02:00:41.911Z,36.73
2023-03-19T02:03:09.510Z,33.93
2023-03-19T02:05:37.916Z,39.50
2023-03-19T02:08:07.412Z,38.97
2023-03-19T02:10:34.705Z,38.23
2023-03-19T02:13:01.552Z,31.87
2023-03-19T02:15:28.718Z,36.77
2023-03-19T02:17:55.518Z,36.53
2023-03-19T02:20:35.161Z,31.23
2023-03-19T02:23:15.035Z,33.80
2023-03-19T02:25:47.564Z,37.13
2023-03-19T02:28:19.551Z,39.70
2023-03-19T02:30:46.249Z,32.20
2023-03-19T02:33:14.328Z,32.70
2023-03-19T02:35:42.444Z,29.37
2023-03-19T02:38:11.324Z,31.07
2023-03-19T02:41:00.827Z,35.37
2023-03-19T02:43:28.360Z,34.53
2023-03-19T02:45:55.378Z,30.17
2023-03-19T02:48:22.299Z,29.00
2023-03-19T02:50:48.975Z,29.87
2023-03-19T02:53:15.977Z,33.03
2023-03-19T02:55:43.160Z,30.17
2023-03-19T02:58:09.997Z,33.13
2023-03-19T03:00:37.521Z,30.83
2023-03-19T03:03:06.727Z,31.30
2023-03-19T03:05:34.147Z,30.37
2023-03-19T03:08:00.875Z,32.83
2023-03-19T03:10:27.848Z,24.57
2023-03-19T03:12:54.784Z,28.57
2023-03-19T03:15:21.707Z,29.70
2023-03-19T03:17:48.564Z,28.93
2023-03-19T03:20:17.688Z,34.90
2023-03-19T03:22:44.519Z,30.63
2023-03-19T03:25:12.124Z,31.10
2023-03-19T03:27:39.126Z,27.03
2023-03-19T03:30:10.664Z,26.80
2023-03-19T03:32:38.882Z,29.53
2023-03-19T03:35:08.238Z,30.20
2023-03-19T03:37:35.462Z,28.80
2023-03-19T03:40:06.745Z,32.20
2023-03-19T03:42:33.648Z,33.93
2023-03-19T03:45:00.825Z,28.93
2023-03-19T03:47:27.634Z,26.30
2023-03-19T03:49:54.355Z,26.50
2023-03-19T03:52:21.214Z,32.27
2023-03-19T03:54:47.915Z,27.17
2023-03-19T03:57:14.601Z,27.83
2023-03-19T03:59:41.897Z,30.30
2023-03-19T04:02:09.398Z,30.53
2023-03-19T04:04:36.136Z,26.63
2023-03-19T04:07:02.868Z,26.40
2023-03-19T04:09:29.604Z,28.43
2023-03-19T04:11:56.272Z,30.53
2023-03-19T04:14:22.943Z,28.20
2023-03-19T04:16:49.757Z,27.93
2023-03-19T04:19:16.889Z,31.03
2023-03-19T04:21:44.947Z,29.30
2023-03-19T04:24:11.999Z,27.80
2023-03-19T04:26:39.206Z,27.20
2023-03-19T04:29:08.242Z,28.57
2023-03-19T04:31:35.122Z,29.80
2023-03-19T04:34:01.913Z,27.50
2023-03-19T04:36:28.982Z,27.50
2023-03-19T04:38:55.884Z,25.27
2023-03-19T04:41:22.657Z,28.63
2023-03-19T04:43:49.758Z,24.37
2023-03-19T04:46:16.953Z,21.13
2023-03-19T04:48:43.802Z,24.20
2023-03-19T04:51:10.608Z,27.37
2023-03-19T04:53:38.779Z,25.50
2023-03-19T04:56:07.062Z,26.43
2023-03-19T04:58:34.406Z,26.80
2023-03-19T05:01:01.258Z,26.07
2023-03-19T05:03:28.034Z,23.40
2023-03-19T05:05:55.259Z,25.87
2023-03-19T05:08:22.016Z,22.50
2023-03-19T05:10:48.757Z,23.83
2023-03-19T05:13:16.039Z,20.40
2023-03-19T05:15:44.089Z,22.23
2023-03-19T05:18:11.382Z,25.50
2023-03-19T05:20:39.310Z,22.50
2023-03-19T05:23:06.588Z,23.13
2023-03-19T05:25:35.225Z,21.63
2023-03-19T05:28:02.787Z,21.50
2023-03-19T05:30:29.639Z,23.73
2023-03-19T05:32:57.904Z,20.83
2023-03-19T05:35:25.767Z,18.90
2023-03-19T05:37:52.581Z,37.10
2023-03-19T05:40:19.412Z,22.33
2023-03-19T05:42:46.169Z,20.00
2023-03-19T05:45:12.917Z,19.27
2023-03-19T05:47:39.975Z,17.57
2023-03-19T05:50:07.721Z,20.97
2023-03-19T05:52:34.511Z,17.20
2023-03-19T05:55:01.466Z,21.33
2023-03-19T05:57:28.301Z,20.53
2023-03-19T05:59:54.988Z,20.87
2023-03-19T06:02:22.098Z,24.20
2023-03-19T06:04:48.808Z,19.47
2023-03-19T06:07:15.629Z,19.10
2023-03-19T06:09:42.681Z,19.03
2023-03-19T06:12:09.849Z,21.83
2023-03-19T06:14:36.675Z,21.10
2023-03-19T06:17:03.691Z,21.43
2023-03-19T06:19:30.949Z,18.40
2023-03-19T06:21:57.633Z,20.73
2023-03-19T06:24:24.382Z,19.73
2023-03-19T06:26:51.167Z,20.53
2023-03-19T06:29:18.002Z,18.40
2023-03-19T06:31:44.952Z,15.87
2023-03-19T06:34:11.818Z,15.70
2023-03-19T06:36:38.638Z,12.70
2023-03-19T06:39:05.504Z,12.30
2023-03-19T06:41:32.464Z,12.60
2023-03-19T06:43:59.152Z,14.87
2023-03-19T06:46:26.128Z,12.90
2023-03-19T06:48:53.400Z,13.70
2023-03-19T06:51:20.336Z,14.83
2023-03-19T06:53:47.042Z,11.33
2023-03-19T06:56:13.730Z,16.80
2023-03-19T06:58:40.447Z,12.67
2023-03-19T07:01:07.621Z,12.30
2023-03-19T07:03:34.512Z,10.80
2023-03-19T07:06:01.262Z,12.03
2023-03-19T07:08:29.902Z,14.87
2023-03-19T07:10:57.294Z,17.23
2023-03-19T07:13:24.055Z,22.37
2023-03-19T07:15:50.928Z,23.50
2023-03-19T07:18:17.619Z,30.23
2023-03-19T07:20:44.303Z,32.13
2023-03-19T07:23:11.000Z,17.63
2023-03-19T07:25:37.774Z,15.10
2023-03-19T07:28:04.803Z,13.93
2023-03-19T07:30:32.068Z,13.03
2023-03-19T07:32:58.920Z,13.53
2023-03-19T07:35:25.661Z,13.97
2023-03-19T07:37:52.491Z,14.77
2023-03-19T07:40:19.340Z,15.40
2023-03-19T07:42:46.632Z,17.33
2023-03-19T07:45:13.554Z,18.93
2023-03-19T07:47:40.536Z,19.53
2023-03-19T07:50:07.856Z,18.50
2023-03-19T07:52:34.861Z,19.70
2023-03-19T07:55:01.642Z,19.00
2023-03-19T07:57:28.351Z,21.03
2023-03-19T07:59:55.033Z,18.10
2023-03-19T08:02:23.567Z,13.43
2023-03-19T08:04:50.774Z,12.30
2023-03-19T08:07:17.745Z,8.10
2023-03-19T08:09:44.481Z,9.73
2023-03-19T08:12:11.500Z,11.90
2023-03-19T08:14:38.244Z,11.77
2023-03-19T08:17:05.720Z,15.33
2023-03-19T08:19:32.709Z,12.67
2023-03-19T08:21:59.431Z,12.37
2023-03-19T08:24:26.470Z,8.50
2023-03-19T08:26:53.416Z,12.10
2023-03-19T08:29:20.252Z,7.97
2023-03-19T08:31:47.041Z,7.90
2023-03-19T08:34:13.790Z,9.03
2023-03-19T08:36:40.758Z,7.70
2023-03-19T08:39:07.561Z,7.50
2023-03-19T08:41:34.388Z,14.53
2023-03-19T08:44:01.199Z,10.47
2023-03-19T08:46:29.302Z,8.37
2023-03-19T08:48:56.393Z,8.60
2023-03-19T08:51:26.009Z,9.30
2023-03-19T08:53:53.396Z,9.00
2023-03-19T08:56:20.708Z,10.43
2023-03-19T08:58:47.462Z,9.90
2023-03-19T09:01:15.069Z,10.43
2023-03-19T09:03:45.002Z,10.53
2023-03-19T09:06:12.669Z,10.47
2023-03-19T09:08:39.342Z,10.43
2023-03-19T09:11:06.645Z,10.63
2023-03-19T09:13:34.008Z,11.50
2023-03-19T09:16:01.477Z,9.03
2023-03-19T09:18:28.296Z,9.90
2023-03-19T09:20:55.310Z,12.33
2023-03-19T09:23:23.068Z,7.73
2023-03-19T09:25:51.035Z,9.13
2023-03-19T09:28:18.324Z,11.57
2023-03-19T09:30:49.835Z,8.63
2023-03-19T09:33:17.679Z,11.13
2023-03-19T09:35:50.382Z,9.73
2023-03-19T09:38:17.191Z,10.50
2023-03-19T09:40:49.413Z,8.90
2023-03-19T09:43:54.925Z,12.67
2023-03-19T09:46:29.629Z,9.23
2023-03-19T09:49:03.063Z,8.13
2023-03-19T09:51:49.921Z,9.63
2023-03-19T09:54:39.322Z,9.30
2023-03-19T09:57:09.998Z,9.17
2023-03-19T09:59:37.836Z,8.00
2023-03-19T10:02:32.505Z,10.43
2023-03-19T10:05:14.319Z,11.80
2023-03-19T10:08:36.557Z,8.73
2023-03-19T10:11:19.218Z,11.70
2023-03-19T10:14:04.673Z,11.37
2023-03-19T10:16:31.581Z,11.33
2023-03-19T10:19:06.384Z,10.83
2023-03-19T10:21:42.422Z,10.07
2023-03-19T10:24:13.965Z,9.00
2023-03-19T10:26:41.847Z,12.60
2023-03-19T10:29:08.591Z,9.33
2023-03-19T10:32:05.897Z,10.60
2023-03-19T10:34:35.511Z,12.87
2023-03-19T10:37:05.935Z,12.60
2023-03-19T10:39:38.217Z,14.77
2023-03-19T10:42:33.278Z,10.97
2023-03-19T10:45:09.018Z,10.23
2023-03-19T10:47:39.584Z,9.10
2023-03-19T10:50:06.956Z,14.50
2023-03-19T10:52:37.934Z,10.63
2023-03-19T10:55:23.308Z,12.40
2023-03-19T10:57:56.168Z,9.90
2023-03-19T11:00:25.445Z,12.60
2023-03-19T11:02:54.877Z,10.70
2023-03-19T11:05:21.521Z,13.80
2023-03-19T11:07:57.391Z,11.37
2023-03-19T11:10:27.224Z,16.90
2023-03-19T11:13:00.606Z,10.13
2023-03-19T11:15:38.712Z,9.80
2023-03-19T11:18:28.265Z,11.50
2023-03-19T11:20:59.613Z,8.70
2023-03-19T11:23:31.466Z,8.83
2023-03-19T11:26:04.408Z,12.67
2023-03-19T11:28:34.343Z,7.87
2023-03-19T11:31:14.043Z,10.27
2023-03-19T11:33:55.734Z,8.13
2023-03-19T11:36:38.445Z,8.20
2023-03-19T11:39:21.449Z,13.87
2023-03-19T11:42:30.016Z,9.60
2023-03-19T11:44:59.733Z,7.77
2023-03-19T11:47:41.776Z,7.30
2023-03-19T11:50:23.166Z,7.97
2023-03-19T11:53:07.971Z,6.80
2023-03-19T11:55:54.414Z,10.10
2023-03-19T11:58:42.276Z,8.80
2023-03-19T12:01:33.260Z,9.53
2023-03-19T12:04:36.367Z,8.60
2023-03-19T12:07:50.846Z,8.90
2023-03-19T12:10:35.912Z,8.47
2023-03-19T12:13:20.663Z,11.27
2023-03-19T12:16:15.950Z,8.63
2023-03-19T12:18:45.775Z,12.40
2023-03-19T12:21:25.832Z,12.87
2023-03-19T12:24:02.247Z,9.33
2023-03-19T12:26:35.011Z,10.47
2023-03-19T12:29:24.109Z,8.93
2023-03-19T12:31:57.132Z,9.97
2023-03-19T12:34:36.088Z,10.63
2023-03-19T12:37:27.214Z,10.90
2023-03-19T12:40:20.728Z,11.53
2023-03-19T12:42:47.555Z,14.93
2023-03-19T12:45:36.765Z,10.50
2023-03-19T12:48:35.344Z,10.73
2023-03-19T12:51:11.191Z,10.60
2023-03-19T12:53:49.283Z,10.93
2023-03-19T12:56:38.472Z,10.50
2023-03-19T12:59:36.875Z,11.47
2023-03-19T13:02:06.092Z,12.40
2023-03-19T13:04:41.604Z,10.50
2023-03-19T13:07:32.293Z,10.00
2023-03-19T13:10:06.768Z,12.97
2023-03-19T13:12:38.184Z,12.60
2023-03-19T13:15:13.052Z,11.77
2023-03-19T13:18:13.481Z,15.50
2023-03-19T13:21:01.402Z,13.10
2023-03-19T13:23:32.471Z,19.20
2023-03-19T13:26:01.266Z,15.63
2023-03-19T13:28:31.769Z,14.63
2023-03-19T13:31:18.979Z,13.53
2023-03-19T13:34:01.806Z,15.80
2023-03-19T13:36:30.905Z,13.50
2023-03-19T13:39:00.493Z,15.53
2023-03-19T13:41:33.268Z,15.70
2023-03-19T13:44:23.448Z,22.20
2023-03-19T13:46:51.422Z,14.63
2023-03-19T13:49:28.197Z,14.87
2023-03-19T13:52:14.852Z,13.80
2023-03-19T13:54:45.993Z,15.03
2023-03-19T13:57:16.465Z,15.07
2023-03-19T13:59:46.761Z,15.80
2023-03-19T14:02:22.151Z,16.43
2023-03-19T14:05:02.630Z,17.80
2023-03-19T14:07:37.142Z,14.10
2023-03-19T14:10:07.843Z,15.37
2023-03-19T14:12:40.141Z,18.30
2023-03-19T14:15:09.910Z,14.63
2023-03-19T14:17:42.628Z,15.17
2023-03-19T14:20:16.702Z,20.40
2023-03-19T14:23:08.962Z,15.57
2023-03-19T14:25:54.705Z,17.70
2023-03-19T14:28:47.629Z,17.93
2023-03-19T14:31:22.446Z,15.30
2023-03-19T14:34:15.094Z,14.57
2023-03-19T14:36:53.909Z,13.70
2023-03-19T14:39:27.662Z,15.87
2023-03-19T14:42:04.948Z,15.93
2023-03-19T14:45:02.129Z,15.97
2023-03-19T14:47:56.471Z,16.03
2023-03-19T14:50:35.882Z,12.17
2023-03-19T14:53:17.628Z,14.63
2023-03-19T14:55:51.170Z,13.33
2023-03-19T14:58:20.409Z,13.10
2023-03-19T15:00:50.208Z,14.03
2023-03-19T15:03:37.004Z,14.43
2023-03-19T15:06:07.574Z,12.10
2023-03-19T15:08:39.649Z,15.70
2023-03-19T15:11:16.043Z,16.20
2023-03-19T15:14:24.452Z,14.17
2023-03-19T15:17:11.234Z,15.43
2023-03-19T15:19:39.540Z,17.13
2023-03-19T15:22:21.323Z,14.97
2023-03-19T15:24:49.151Z,16.10
2023-03-19T15:27:19.998Z,18.80
2023-03-19T15:29:49.257Z,15.80
2023-03-19T15:32:54.408Z,15.27
2023-03-19T15:35:29.485Z,15.30
2023-03-19T15:38:00.428Z,16.67
2023-03-19T15:40:30.758Z,16.47
2023-03-19T15:43:01.242Z,15.43
2023-03-19T15:45:29.737Z,11.70
2023-03-19T15:48:08.568Z,12.43
2023-03-19T15:50:40.127Z,11.83
2023-03-19T15:53:12.746Z,12.57
2023-03-19T15:55:39.758Z,14.37
2023-03-19T15:58:11.496Z,17.27
2023-03-19T16:00:41.861Z,20.97
2023-03-19T16:03:16.329Z,18.13
2023-03-19T16:05:43.421Z,18.83
2023-03-19T16:08:24.925Z,19.80
2023-03-19T16:10:52.669Z,18.53
2023-03-19T16:13:29.938Z,18.17
2023-03-19T16:16:05.352Z,22.27
2023-03-19T16:18:52.178Z,19.30
2023-03-19T16:21:27.831Z,15.20
2023-03-19T16:24:19.988Z,13.70
2023-03-19T16:26:48.450Z,16.87
2023-03-19T16:29:18.417Z,18.20
2023-03-19T16:31:51.881Z,14.90
2023-03-19T16:34:43.519Z,16.47
2023-03-19T16:37:38.262Z,16.93
2023-03-19T16:40:14.093Z,16.03
2023-03-19T16:42:42.300Z,31.77
2023-03-19T16:45:18.198Z,23.73
2023-03-19T16:47:56.991Z,19.77
2023-03-19T16:50:37.335Z,17.90
2023-03-19T16:53:10.797Z,18.50
2023-03-19T16:55:38.096Z,17.80
2023-03-19T16:58:21.789Z,16.43
2023-03-19T17:00:48.783Z,16.10
2023-03-19T17:03:18.001Z,15.20
2023-03-19T17:05:48.314Z,15.67
2023-03-19T17:08:16.022Z,19.07
2023-03-19T17:10:46.171Z,21.83
2023-03-19T17:13:21.289Z,18.03
2023-03-19T17:15:49.673Z,15.60
2023-03-19T17:18:25.266Z,15.33
2023-03-19T17:21:00.792Z,14.20
2023-03-19T17:23:28.033Z,15.83
2023-03-19T17:25:55.125Z,14.87
2023-03-19T17:28:22.029Z,17.73
2023-03-19T17:30:50.066Z,16.97
2023-03-19T17:33:28.543Z,21.43
2023-03-19T17:35:57.468Z,20.87
2023-03-19T17:38:32.430Z,17.00
2023-03-19T17:40:59.339Z,20.23
2023-03-19T17:43:26.122Z,19.23
2023-03-19T17:45:54.643Z,23.70
2023-03-19T17:48:26.477Z,18.40
2023-03-19T17:50:58.267Z,22.73
2023-03-19T17:53:25.091Z,19.20
2023-03-19T17:55:51.857Z,19.50
2023-03-19T17:58:21.169Z,25.40
2023-03-19T18:00:49.662Z,23.90
2023-03-19T18:03:21.113Z,22.70
2023-03-19T18:05:50.248Z,19.23
2023-03-19T18:08:20.792Z,21.60
2023-03-19T18:10:47.578Z,22.40
2023-03-19T18:13:14.458Z,24.60
2023-03-19T18:15:44.528Z,23.27
2023-03-19T18:18:21.098Z,26.07
2023-03-19T18:20:48.525Z,25.07
2023-03-19T18:23:16.211Z,26.70
2023-03-19T18:25:46.208Z,32.27
2023-03-19T18:28:13.354Z,29.83
2023-03-19T18:30:41.657Z,30.43
2023-03-19T18:33:19.782Z,30.90
2023-03-19T18:35:47.280Z,29.90
2023-03-19T18:38:19.991Z,27.40
2023-03-19T18:40:47.643Z,26.77
2023-03-19T18:43:16.216Z,25.03
2023-03-19T18:45:45.723Z,24.10
2023-03-19T18:48:21.292Z,29.33
2023-03-19T18:50:48.514Z,26.03
2023-03-19T18:53:17.019Z,31.80
2023-03-19T18:55:44.664Z,25.70
2023-03-19T18:58:21.734Z,28.00
2023-03-19T19:00:49.618Z,25.93
2023-03-19T19:03:19.793Z,31.00
2023-03-19T19:05:46.636Z,35.97
2023-03-19T19:08:19.432Z,29.97
2023-03-19T19:10:55.373Z,31.83
2023-03-19T19:13:30.263Z,35.70
2023-03-19T19:15:57.095Z,36.83
2023-03-19T19:18:30.592Z,35.33
2023-03-19T19:20:58.518Z,35.17
2023-03-19T19:23:30.108Z,33.43
2023-03-19T19:25:56.968Z,35.57
2023-03-19T19:28:32.628Z,31.73
2023-03-19T19:31:00.474Z,31.10
2023-03-19T19:33:31.700Z,31.40
2023-03-19T19:35:58.874Z,32.93
2023-03-19T19:38:25.624Z,35.40
2023-03-19T19:40:54.910Z,30.63
2023-03-19T19:43:24.313Z,32.80
2023-03-19T19:45:55.937Z,30.00
2023-03-19T19:48:27.993Z,30.60
2023-03-19T19:50:56.249Z,33.10
2023-03-19T19:53:29.413Z,30.97
2023-03-19T19:55:56.526Z,33.80
2023-03-19T19:58:31.452Z,28.73
2023-03-19T20:01:04.380Z,29.20
2023-03-19T20:03:33.428Z,29.63
2023-03-19T20:06:01.508Z,34.33
2023-03-19T20:08:28.817Z,31.80
2023-03-19T20:10:56.738Z,29.50
2023-03-19T20:13:25.574Z,28.80
2023-03-19T20:15:57.475Z,29.10
2023-03-19T20:18:30.770Z,28.80
2023-03-19T20:20:59.374Z,29.30
2023-03-19T20:23:26.588Z,31.57
2023-03-19T20:25:54.293Z,30.60
2023-03-19T20:28:34.145Z,34.00
2023-03-19T20:31:04.593Z,34.10
2023-03-19T20:33:32.454Z,30.50
2023-03-19T20:35:59.238Z,33.53
2023-03-19T20:38:27.437Z,30.10
2023-03-19T20:40:56.735Z,33.23
2023-03-19T20:43:28.084Z,34.87
2023-03-19T20:45:57.274Z,32.00
2023-03-19T20:48:25.695Z,29.83
2023-03-19T20:50:52.583Z,29.73
2023-03-19T20:53:19.648Z,26.70
2023-03-19T20:55:47.888Z,31.30
2023-03-19T20:58:29.517Z,31.80
2023-03-19T21:00:58.011Z,32.20
2023-03-19T21:03:27.092Z,29.43
2023-03-19T21:05:58.239Z,32.53
2023-03-19T21:08:38.970Z,28.17
2023-03-19T21:11:08.949Z,30.13
2023-03-19T21:13:35.651Z,35.03
2023-03-19T21:16:02.648Z,31.03
2023-03-19T21:18:29.474Z,35.20
2023-03-19T21:20:57.850Z,34.97
2023-03-19T21:23:35.270Z,32.73
2023-03-19T21:26:23.919Z,34.97
2023-03-19T21:29:00.189Z,42.37
2023-03-19T21:31:27.266Z,41.07
2023-03-19T21:33:55.855Z,41.83
2023-03-19T21:36:23.939Z,45.50
2023-03-19T21:38:52.491Z,46.53
2023-03-19T21:41:26.049Z,51.73
2023-03-19T21:43:56.259Z,47.10
2023-03-19T21:46:26.518Z,54.33
2023-03-19T21:48:58.124Z,43.93
2023-03-19T21:51:26.427Z,44.43
2023-03-19T21:53:53.132Z,40.20
2023-03-19T21:56:32.760Z,38.60
2023-03-19T21:59:09.699Z,40.20
2023-03-19T22:01:36.429Z,42.80
2023-03-19T22:04:03.239Z,44.07
2023-03-19T22:06:29.998Z,53.03
2023-03-19T22:08:56.920Z,43.03
2023-03-19T22:11:28.353Z,54.07
2023-03-19T22:14:19.015Z,50.03
2023-03-19T22:16:47.392Z,55.03
2023-03-19T22:19:15.833Z,53.50
2023-03-19T22:21:42.643Z,55.20
2023-03-19T22:24:09.355Z,47.47
2023-03-19T22:26:46.394Z,52.50
2023-03-19T22:29:14.898Z,51.30
2023-03-19T22:31:41.991Z,52.53
2023-03-19T22:34:16.596Z,49.23
2023-03-19T22:36:43.878Z,54.23
2023-03-19T22:39:10.581Z,52.13
2023-03-19T22:41:42.610Z,54.90
2023-03-19T22:44:32.529Z,50.70
2023-03-19T22:47:01.669Z,61.17
2023-03-19T22:49:29.694Z,56.27
2023-03-19T22:51:57.667Z,50.50
2023-03-19T22:54:24.486Z,56.87
2023-03-19T22:56:51.140Z,61.60
2023-03-19T22:59:18.567Z,57.20
2023-03-19T23:01:47.199Z,54.07
2023-03-19T23:04:22.684Z,65.23
2023-03-19T23:06:50.487Z,70.43
2023-03-19T23:09:20.300Z,56.37
2023-03-19T23:11:48.399Z,56.87
2023-03-19T23:14:28.425Z,58.80
2023-03-19T23:19:28.215Z,54.13
2023-03-19T23:21:55.416Z,55.43
2023-03-19T23:24:22.518Z,51.50
2023-03-19T23:26:50.661Z,55.47
2023-03-19T23:29:29.399Z,53.33
2023-03-19T23:31:58.589Z,53.77
2023-03-19T23:34:26.170Z,49.17
2023-03-19T23:36:53.529Z,55.63
2023-03-19T23:39:21.096Z,57.37
2023-03-19T23:41:50.843Z,58.03
2023-03-19T23:44:19.434Z,50.80
2023-03-19T23:46:49.263Z,58.40
2023-03-19T23:49:23.142Z,63.80
2023-03-19T23:51:49.846Z,57.23
2023-03-19T23:54:37.792Z,64.87
2023-03-19T23:57:07.064Z,60.60
2023-03-19T23:59:36.990Z,58.60
